Terminal Aerodrome Forecast
Issued by NWS

Home | Current Version | Previous Version | Text Only | Print | Product List | Glossary On
Versions: 1 2 3 4 5 6 7 8 9 10 11 12 13 14 15 16 17 18 19 20 21 22 23 24 25 26
000
FTUS45 KGJT 311735
TAFASE
TAF
KASE 311735Z 3118/0118 32004KT P6SM VCTS SCT030 BKN070CB
      TEMPO 3118/3120 VRB15G22KT 6SM -TSRA BKN050CB BKN070
     FM312100 34008KT P6SM VCTS SCT070CB BKN150
     FM010200 21005KT P6SM SCT090 SCT150
     FM011700 01004KT P6SM FEW080 SCT150=

USA.gov is the U.S. government's official web portal to all federal, state and local government web resources and services.